Time,TemperatureF,DewpointF,PressureIn,WindDirection,WindDirectionDegrees,WindSpeedMPH,WindSpeedGustMPH,Humidity,HourlyPrecipIn,Conditions,Clouds,dailyrainin,SoftwareType,DateUTC
2013-02-13 00:00:00,30.1,12.7,30.25,NW,316,4.0,4.0,48,0.00,,,0.00,Wunderground v.1.15,2013-02-13 07:00:00,
2013-02-13 00:05:00,30.2,12.4,30.25,NNW,334,4.0,4.0,47,0.00,,,0.00,Wunderground v.1.15,2013-02-13 07:05:00,
2013-02-13 00:14:00,30.0,12.2,30.25,NNW,331,3.0,4.0,47,0.00,,,0.00,Wunderground v.1.15,2013-02-13 07:14:00,
2013-02-13 00:20:00,29.9,12.1,30.25,NNW,332,3.0,3.0,47,0.00,,,0.00,Wunderground v.1.15,2013-02-13 07:20:00,
2013-02-13 00:25:00,30.0,12.2,30.25,WNW,299,2.0,3.0,47,0.00,,,0.00,Wunderground v.1.15,2013-02-13 07:25:00,
2013-02-13 00:30:00,30.1,12.3,30.25,NW,323,3.0,3.0,47,0.00,,,0.00,Wunderground v.1.15,2013-02-13 07:30:00,
2013-02-13 00:35:00,30.0,12.2,30.25,NNW,337,2.0,3.0,47,0.00,,,0.00,Wunderground v.1.15,2013-02-13 07:35:00,
2013-02-13 00:40:00,29.9,12.1,30.25,NNW,340,1.0,1.0,47,0.00,,,0.00,Wunderground v.1.15,2013-02-13 07:40:00,
2013-02-13 00:45:00,29.6,11.8,30.25,NNW,341,1.0,4.0,47,0.00,,,0.00,Wunderground v.1.15,2013-02-13 07:45:00,
2013-02-13 00:50:00,29.5,12.2,30.25,NNW,341,2.0,4.0,48,0.00,,,0.00,Wunderground v.1.15,2013-02-13 07:50:00,
2013-02-13 00:55:00,29.6,12.3,30.25,NNW,340,3.0,4.0,48,0.00,,,0.00,Wunderground v.1.15,2013-02-13 07:55:00,
2013-02-13 01:05:00,29.5,12.2,30.25,North,5,2.0,2.0,48,0.00,,,0.00,Wunderground v.1.15,2013-02-13 08:05:00,
2013-02-13 01:14:00,29.8,12.5,30.25,NW,321,3.0,7.0,48,0.00,,,0.00,Wunderground v.1.15,2013-02-13 08:14:00,
2013-02-13 01:20:00,29.9,12.1,30.25,NNE,17,3.0,3.0,47,0.00,,,0.00,Wunderground v.1.15,2013-02-13 08:20:00,
2013-02-13 01:25:00,29.9,12.1,30.25,NNE,22,3.0,3.0,47,0.00,,,0.00,Wunderground v.1.15,2013-02-13 08:25:00,
2013-02-13 01:30:00,29.7,11.9,30.25,NNE,22,2.0,2.0,47,0.00,,,0.00,Wunderground v.1.15,2013-02-13 08:30:00,
2013-02-13 01:40:00,29.1,12.3,30.25,NNE,22,1.0,1.0,49,0.00,,,0.00,Wunderground v.1.15,2013-02-13 08:40:00,
2013-02-13 01:45:00,29.0,12.2,30.25,NNE,17,1.0,2.0,49,0.00,,,0.00,Wunderground v.1.15,2013-02-13 08:45:00,
2013-02-13 01:50:00,29.0,12.2,30.25,NNE,17,1.0,1.0,49,0.00,,,0.00,Wunderground v.1.15,2013-02-13 08:50:00,
2013-02-13 01:55:00,28.8,12.0,30.25,NNE,17,1.0,1.0,49,0.00,,,0.00,Wunderground v.1.15,2013-02-13 08:55:00,
2013-02-13 02:00:00,28.6,11.8,30.25,NNE,17,0.0,0.0,49,0.00,,,0.00,Wunderground v.1.15,2013-02-13 09:00:00,
2013-02-13 02:05:00,28.4,11.6,30.25,NNE,17,0.0,1.0,49,0.00,,,0.00,Wunderground v.1.15,2013-02-13 09:05:00,
2013-02-13 02:14:00,27.5,10.8,30.25,NNE,17,0.0,0.0,49,0.00,,,0.00,Wunderground v.1.15,2013-02-13 09:14:00,
2013-02-13 02:20:00,26.9,11.2,30.25,NNE,17,0.0,0.0,51,0.00,,,0.00,Wunderground v.1.15,2013-02-13 09:20:00,
2013-02-13 02:25:00,26.5,11.7,30.25,NNE,17,0.0,0.0,53,0.00,,,0.00,Wunderground v.1.15,2013-02-13 09:25:00,
2013-02-13 02:30:00,26.3,11.5,30.25,NNE,17,0.0,0.0,53,0.00,,,0.00,Wunderground v.1.15,2013-02-13 09:30:00,
2013-02-13 02:35:00,26.4,12.0,30.25,NNE,17,0.0,0.0,54,0.00,,,0.00,Wunderground v.1.15,2013-02-13 09:35:00,
2013-02-13 02:40:00,26.6,11.7,30.24,NNE,17,0.0,0.0,53,0.00,,,0.00,Wunderground v.1.15,2013-02-13 09:40:00,
2013-02-13 02:50:00,27.0,11.7,30.25,NNE,17,0.0,1.0,52,0.00,,,0.00,Wunderground v.1.15,2013-02-13 09:50:00,
2013-02-13 02:55:00,27.0,11.7,30.24,NNE,17,0.0,1.0,52,0.00,,,0.00,Wunderground v.1.15,2013-02-13 09:55:00,
2013-02-13 03:00:00,27.0,11.7,30.24,NNE,17,1.0,1.0,52,0.00,,,0.00,Wunderground v.1.15,2013-02-13 10:00:00,
2013-02-13 03:05:00,26.9,11.6,30.24,NNE,16,1.0,1.0,52,0.00,,,0.00,Wunderground v.1.15,2013-02-13 10:05:00,
2013-02-13 03:15:00,26.4,10.3,30.24,NNE,17,0.0,1.0,50,0.00,,,0.00,Wunderground v.1.15,2013-02-13 10:15:00,
2013-02-13 03:25:00,24.0,9.7,30.25,NNE,17,0.0,0.0,54,0.00,,,0.00,Wunderground v.1.15,2013-02-13 10:25:00,
2013-02-13 03:30:00,23.5,9.7,30.25,NNE,17,0.0,0.0,55,0.00,,,0.00,Wunderground v.1.15,2013-02-13 10:30:00,
2013-02-13 03:35:00,22.8,9.4,30.25,NNE,17,0.0,0.0,56,0.00,,,0.00,Wunderground v.1.15,2013-02-13 10:35:00,
2013-02-13 03:40:00,22.1,9.2,30.25,NNE,16,0.0,0.0,57,0.00,,,0.00,Wunderground v.1.15,2013-02-13 10:40:00,
2013-02-13 03:45:00,21.8,9.3,30.25,NNE,17,0.0,0.0,58,0.00,,,0.00,Wunderground v.1.15,2013-02-13 10:45:00,
2013-02-13 03:55:00,20.8,9.8,30.25,NNE,17,0.0,0.0,62,0.00,,,0.00,Wunderground v.1.15,2013-02-13 10:55:00,
2013-02-13 04:00:00,20.5,9.5,30.24,NNE,16,0.0,0.0,62,0.00,,,0.00,Wunderground v.1.15,2013-02-13 11:00:00,
2013-02-13 04:05:00,20.3,9.0,30.24,NNE,17,0.0,0.0,61,0.00,,,0.00,Wunderground v.1.15,2013-02-13 11:05:00,
2013-02-13 04:15:00,20.9,9.5,30.24,NNE,17,0.0,0.0,61,0.00,,,0.00,Wunderground v.1.15,2013-02-13 11:15:00,
2013-02-13 04:20:00,20.5,9.2,30.23,NNE,17,0.0,0.0,61,0.00,,,0.00,Wunderground v.1.15,2013-02-13 11:20:00,
2013-02-13 04:30:00,20.2,9.2,30.23,NNE,17,0.0,1.0,62,0.00,,,0.00,Wunderground v.1.15,2013-02-13 11:30:00,
2013-02-13 04:35:00,20.5,9.5,30.23,NNE,17,0.0,1.0,62,0.00,,,0.00,Wunderground v.1.15,2013-02-13 11:35:00,
2013-02-13 04:40:00,20.5,9.5,30.23,NNE,17,0.0,0.0,62,0.00,,,0.00,Wunderground v.1.15,2013-02-13 11:40:00,
2013-02-13 04:45:00,20.8,9.8,30.24,NNE,17,0.0,0.0,62,0.00,,,0.00,Wunderground v.1.15,2013-02-13 11:45:00,
2013-02-13 04:50:00,20.7,9.4,30.24,NNE,17,0.0,0.0,61,0.00,,,0.00,Wunderground v.1.15,2013-02-13 11:50:00,
2013-02-13 04:55:00,20.8,9.5,30.24,NNE,17,0.0,0.0,61,0.00,,,0.00,Wunderground v.1.15,2013-02-13 11:55:00,
2013-02-13 05:05:00,20.9,9.2,30.24,NNE,17,0.0,0.0,60,0.00,,,0.00,Wunderground v.1.15,2013-02-13 12:05:00,
2013-02-13 05:15:00,20.3,9.0,30.24,NNE,17,0.0,0.0,61,0.00,,,0.00,Wunderground v.1.15,2013-02-13 12:15:00,
2013-02-13 05:20:00,20.2,9.2,30.24,NNE,17,0.0,0.0,62,0.00,,,0.00,Wunderground v.1.15,2013-02-13 12:20:00,
2013-02-13 05:25:00,20.3,9.3,30.24,NNE,17,0.0,0.0,62,0.00,,,0.00,Wunderground v.1.15,2013-02-13 12:25:00,
2013-02-13 05:30:00,20.4,9.4,30.24,NNE,17,0.0,0.0,62,0.00,,,0.00,Wunderground v.1.15,2013-02-13 12:30:00,
2013-02-13 05:40:00,19.6,8.3,30.24,NNE,17,0.0,0.0,61,0.00,,,0.00,Wunderground v.1.15,2013-02-13 12:40:00,
2013-02-13 05:45:00,18.6,8.8,30.24,NNE,17,0.0,0.0,65,0.00,,,0.00,Wunderground v.1.15,2013-02-13 12:45:00,
2013-02-13 05:50:00,18.0,9.2,30.25,NNE,17,0.0,0.0,68,0.00,,,0.00,Wunderground v.1.15,2013-02-13 12:50:00,
2013-02-13 05:55:00,17.9,9.4,30.25,NNE,17,0.0,0.0,69,0.00,,,0.00,Wunderground v.1.15,2013-02-13 12:55:00,
2013-02-13 06:05:00,17.8,9.3,30.25,NNE,17,0.0,0.0,69,0.00,,,0.00,Wunderground v.1.15,2013-02-13 13:05:00,
2013-02-13 06:15:00,17.7,9.2,30.25,NNE,17,0.0,0.0,69,0.00,,,0.00,Wunderground v.1.15,2013-02-13 13:15:00,
2013-02-13 06:20:00,17.5,9.7,30.25,NNE,17,0.0,0.0,71,0.00,,,0.00,Wunderground v.1.15,2013-02-13 13:20:00,
2013-02-13 06:25:00,17.3,9.5,30.26,NNE,17,0.0,0.0,71,0.00,,,0.00,Wunderground v.1.15,2013-02-13 13:25:00,
2013-02-13 06:30:00,17.3,10.1,30.26,NNE,17,0.0,0.0,73,0.00,,,0.00,Wunderground v.1.15,2013-02-13 13:30:00,
2013-02-13 06:35:00,17.7,10.5,30.26,NNE,17,0.0,0.0,73,0.00,,,0.00,Wunderground v.1.15,2013-02-13 13:35:00,
2013-02-13 06:45:00,18.2,10.4,30.27,NNE,17,0.0,0.0,71,0.00,,,0.00,Wunderground v.1.15,2013-02-13 13:45:00,
2013-02-13 06:50:00,18.2,10.1,30.27,NNE,17,0.0,0.0,70,0.00,,,0.00,Wunderground v.1.15,2013-02-13 13:50:00,
2013-02-13 06:55:00,18.0,9.9,30.26,NNE,17,0.0,0.0,70,0.00,,,0.00,Wunderground v.1.15,2013-02-13 13:55:00,
2013-02-13 07:00:00,17.7,9.2,30.27,NNE,17,0.0,0.0,69,0.00,,,0.00,Wunderground v.1.15,2013-02-13 14:00:00,
2013-02-13 07:05:00,17.5,9.4,30.26,NNE,17,0.0,0.0,70,0.00,,,0.00,Wunderground v.1.15,2013-02-13 14:05:00,
2013-02-13 07:15:00,17.3,9.2,30.26,NNE,17,0.0,0.0,70,0.00,,,0.00,Wunderground v.1.15,2013-02-13 14:15:00,
2013-02-13 07:20:00,17.5,9.7,30.27,NNE,17,0.0,0.0,71,0.00,,,0.00,Wunderground v.1.15,2013-02-13 14:20:00,
2013-02-13 07:25:00,17.8,10.0,30.27,NNE,17,0.0,0.0,71,0.00,,,0.00,Wunderground v.1.15,2013-02-13 14:25:00,
2013-02-13 07:30:00,17.7,9.6,30.27,NNE,17,0.0,0.0,70,0.00,,,0.00,Wunderground v.1.15,2013-02-13 14:30:00,
2013-02-13 07:35:00,18.3,10.1,30.27,NNE,17,0.0,0.0,70,0.00,,,0.00,Wunderground v.1.15,2013-02-13 14:35:00,
2013-02-13 07:40:00,19.0,10.5,30.27,NNE,17,0.0,0.0,69,0.00,,,0.00,Wunderground v.1.15,2013-02-13 14:40:00,
2013-02-13 07:45:00,19.5,12.6,30.27,NNE,17,0.0,0.0,74,0.00,,,0.00,Wunderground v.1.15,2013-02-13 14:45:00,
2013-02-13 07:55:00,21.3,11.4,30.28,NNE,17,0.0,0.0,65,0.00,,,0.00,Wunderground v.1.15,2013-02-13 14:55:00,
2013-02-13 08:00:00,22.2,11.5,30.27,NNE,17,0.0,0.0,63,0.00,,,0.00,Wunderground v.1.15,2013-02-13 15:00:00,
2013-02-13 08:10:00,24.4,12.5,30.28,NNE,17,0.0,0.0,60,0.00,,,0.00,Wunderground v.1.15,2013-02-13 15:10:00,
2013-02-13 08:15:00,25.6,13.2,30.28,NNE,17,0.0,0.0,59,0.00,,,0.00,Wunderground v.1.15,2013-02-13 15:15:00,
2013-02-13 08:20:00,26.5,12.5,30.28,NNE,17,0.0,0.0,55,0.00,,,0.00,Wunderground v.1.15,2013-02-13 15:20:00,
2013-02-13 08:25:00,27.5,13.0,30.27,NNE,17,0.0,0.0,54,0.00,,,0.00,Wunderground v.1.15,2013-02-13 15:25:00,
2013-02-13 08:30:00,28.3,12.9,30.27,NNE,17,0.0,0.0,52,0.00,,,0.00,Wunderground v.1.15,2013-02-13 15:30:00,
2013-02-13 08:35:00,28.7,12.8,30.27,NNE,17,0.0,0.0,51,0.00,,,0.00,Wunderground v.1.15,2013-02-13 15:35:00,
2013-02-13 08:40:00,29.4,13.0,30.28,NNE,17,0.0,0.0,50,0.00,,,0.00,Wunderground v.1.15,2013-02-13 15:40:00,
2013-02-13 08:45:00,30.2,13.3,30.28,East,88,0.0,0.0,49,0.00,,,0.00,Wunderground v.1.15,2013-02-13 15:45:00,
2013-02-13 08:50:00,31.0,13.6,30.27,East,88,0.0,0.0,48,0.00,,,0.00,Wunderground v.1.15,2013-02-13 15:50:00,
2013-02-13 09:00:00,32.0,14.0,30.27,East,88,0.0,0.0,47,0.00,,,0.00,Wunderground v.1.15,2013-02-13 16:00:00,
2013-02-13 09:10:00,32.6,13.1,30.27,East,101,1.0,1.0,44,0.00,,,0.00,Wunderground v.1.15,2013-02-13 16:10:00,
2013-02-13 09:15:00,32.8,14.3,30.27,East,101,1.0,1.0,46,0.00,,,0.00,Wunderground v.1.15,2013-02-13 16:15:00,
2013-02-13 09:20:00,33.9,13.7,30.27,East,101,0.0,0.0,43,0.00,,,0.00,Wunderground v.1.15,2013-02-13 16:20:00,
2013-02-13 09:25:00,34.3,14.1,30.27,NNE,30,0.0,3.0,43,0.00,,,0.00,Wunderground v.1.15,2013-02-13 16:25:00,
2013-02-13 09:30:00,34.9,14.1,30.27,East,90,2.0,2.0,42,0.00,,,0.00,Wunderground v.1.15,2013-02-13 16:30:00,
2013-02-13 09:35:00,35.5,14.1,30.27,NNW,342,2.0,6.0,41,0.00,,,0.00,Wunderground v.1.15,2013-02-13 16:35:00,
2013-02-13 09:40:00,36.2,13.6,30.27,North,9,3.0,3.0,39,0.00,,,0.00,Wunderground v.1.15,2013-02-13 16:40:00,
2013-02-13 09:45:00,37.3,13.4,30.27,North,350,4.0,7.0,37,0.00,,,0.00,Wunderground v.1.15,2013-02-13 16:45:00,
2013-02-13 09:55:00,38.4,13.1,30.27,North,360,5.0,5.0,35,0.00,,,0.00,Wunderground v.1.15,2013-02-13 16:55:00,
2013-02-13 10:00:00,38.6,12.6,30.26,NNW,328,4.0,4.0,34,0.00,,,0.00,Wunderground v.1.15,2013-02-13 17:00:00,
2013-02-13 10:05:00,38.9,12.9,30.26,North,355,4.0,4.0,34,0.00,,,0.00,Wunderground v.1.15,2013-02-13 17:05:00,
2013-02-13 10:15:00,39.7,13.6,30.26,NW,325,4.0,7.0,34,0.00,,,0.00,Wunderground v.1.15,2013-02-13 17:15:00,
2013-02-13 10:20:00,39.3,13.2,30.25,NNE,12,5.0,5.0,34,0.00,,,0.00,Wunderground v.1.15,2013-02-13 17:20:00,
2013-02-13 10:25:00,39.8,13.7,30.25,North,9,4.0,5.0,34,0.00,,,0.00,Wunderground v.1.15,2013-02-13 17:25:00,
2013-02-13 10:30:00,40.5,13.6,30.25,NNW,348,3.0,8.0,33,0.00,,,0.00,Wunderground v.1.15,2013-02-13 17:30:00,
2013-02-13 10:35:00,40.8,13.2,30.25,NNW,348,4.0,8.0,32,0.00,,,0.00,Wunderground v.1.15,2013-02-13 17:35:00,
2013-02-13 10:40:00,40.9,12.5,30.25,North,355,5.0,5.0,31,0.00,,,0.00,Wunderground v.1.15,2013-02-13 17:40:00,
2013-02-13 10:45:00,41.6,13.2,30.25,North,360,5.0,5.0,31,0.00,,,0.00,Wunderground v.1.15,2013-02-13 17:45:00,
2013-02-13 10:55:00,41.7,12.5,30.25,North,360,6.0,8.0,30,0.00,,,0.00,Wunderground v.1.15,2013-02-13 17:55:00,
2013-02-13 11:00:00,42.2,12.9,30.25,NNE,28,5.0,5.0,30,0.00,,,0.00,Wunderground v.1.15,2013-02-13 18:00:00,
2013-02-13 11:05:00,42.7,12.6,30.24,NNW,340,6.0,8.0,29,0.00,,,0.00,Wunderground v.1.15,2013-02-13 18:05:00,
2013-02-13 11:15:00,42.9,12.8,30.24,NNW,346,6.0,7.0,29,0.00,,,0.00,Wunderground v.1.15,2013-02-13 18:15:00,
2013-02-13 11:20:00,43.1,12.9,30.24,NNW,336,6.0,6.0,29,0.00,,,0.00,Wunderground v.1.15,2013-02-13 18:20:00,
2013-02-13 11:25:00,43.2,13.0,30.23,NNW,347,7.0,7.0,29,0.00,,,0.00,Wunderground v.1.15,2013-02-13 18:25:00,
2013-02-13 11:30:00,44.0,13.7,30.22,NNE,18,5.0,5.0,29,0.00,,,0.00,Wunderground v.1.15,2013-02-13 18:30:00,
2013-02-13 11:35:00,44.3,13.2,30.22,NNW,327,4.0,6.0,28,0.00,,,0.00,Wunderground v.1.15,2013-02-13 18:35:00,
2013-02-13 11:44:00,44.0,13.7,30.21,NW,318,4.0,8.0,29,0.00,,,0.00,Wunderground v.1.15,2013-02-13 18:44:00,
2013-02-13 11:54:00,44.7,13.5,30.20,NNW,345,4.0,4.0,28,0.00,,,0.00,Wunderground v.1.15,2013-02-13 18:54:00,
2013-02-13 12:00:00,45.3,13.2,30.20,North,9,3.0,4.0,27,0.00,,,0.00,Wunderground v.1.15,2013-02-13 19:00:00,
2013-02-13 12:05:00,45.1,13.1,30.20,NNE,26,3.0,4.0,27,0.00,,,0.00,Wunderground v.1.15,2013-02-13 19:05:00,
2013-02-13 12:15:00,46.5,13.4,30.20,NNW,340,4.0,7.0,26,0.00,,,0.00,Wunderground v.1.15,2013-02-13 19:15:00,
2013-02-13 12:25:00,46.4,14.2,30.19,NNE,26,6.0,8.0,27,0.00,,,0.00,Wunderground v.1.15,2013-02-13 19:25:00,
2013-02-13 12:30:00,46.9,13.7,30.19,WNW,300,6.0,6.0,26,0.00,,,0.00,Wunderground v.1.15,2013-02-13 19:30:00,
2013-02-13 12:35:00,46.8,13.7,30.18,WNW,298,6.0,7.0,26,0.00,,,0.00,Wunderground v.1.15,2013-02-13 19:35:00,
2013-02-13 12:44:00,46.8,13.7,30.17,NNE,17,7.0,7.0,26,0.00,,,0.00,Wunderground v.1.15,2013-02-13 19:44:00,
2013-02-13 12:50:00,47.0,15.5,30.16,North,350,7.0,7.0,28,0.00,,,0.00,Wunderground v.1.15,2013-02-13 19:50:00,
2013-02-13 13:00:00,46.6,14.4,30.16,NW,314,7.0,9.0,27,0.00,,,0.00,Wunderground v.1.15,2013-02-13 20:00:00,
2013-02-13 13:05:00,46.5,14.3,30.16,North,360,8.0,9.0,27,0.00,,,0.00,Wunderground v.1.15,2013-02-13 20:05:00,
2013-02-13 13:15:00,47.8,15.4,30.15,NNW,340,7.0,13.0,27,0.00,,,0.00,Wunderground v.1.15,2013-02-13 20:15:00,
2013-02-13 13:20:00,47.6,15.2,30.15,North,5,8.0,8.0,27,0.00,,,0.00,Wunderground v.1.15,2013-02-13 20:20:00,
2013-02-13 13:25:00,47.7,14.4,30.15,NW,320,9.0,9.0,26,0.00,,,0.00,Wunderground v.1.15,2013-02-13 20:25:00,
2013-02-13 13:35:00,47.8,14.5,30.14,North,5,7.0,8.0,26,0.00,,,0.00,Wunderground v.1.15,2013-02-13 20:35:00,
2013-02-13 13:44:00,48.5,15.1,30.14,WNW,292,5.0,7.0,26,0.00,,,0.00,Wunderground v.1.15,2013-02-13 20:44:00,
2013-02-13 13:50:00,48.6,15.2,30.14,NNW,328,5.0,8.0,26,0.00,,,0.00,Wunderground v.1.15,2013-02-13 20:50:00,
2013-02-13 13:55:00,48.6,15.2,30.13,North,355,6.0,8.0,26,0.00,,,0.00,Wunderground v.1.15,2013-02-13 20:55:00,
2013-02-13 14:00:00,48.7,15.3,30.13,NNW,348,6.0,8.0,26,0.00,,,0.00,Wunderground v.1.15,2013-02-13 21:00:00,
2013-02-13 14:05:00,48.8,14.5,30.13,North,349,6.0,9.0,25,0.00,,,0.00,Wunderground v.1.15,2013-02-13 21:05:00,
2013-02-13 14:15:00,49.7,15.2,30.13,North,360,5.0,9.0,25,0.00,,,0.00,Wunderground v.1.15,2013-02-13 21:15:00,
2013-02-13 14:20:00,49.8,15.3,30.12,NW,315,6.0,11.0,25,0.00,,,0.00,Wunderground v.1.15,2013-02-13 21:20:00,
2013-02-13 14:25:00,49.2,14.8,30.12,West,271,7.0,11.0,25,0.00,,,0.00,Wunderground v.1.15,2013-02-13 21:25:00,
2013-02-13 14:30:00,48.8,14.5,30.12,NNW,333,8.0,10.0,25,0.00,,,0.00,Wunderground v.1.15,2013-02-13 21:30:00,
2013-02-13 14:39:00,48.8,14.5,30.12,WNW,295,8.0,8.0,25,0.00,,,0.00,Wunderground v.1.15,2013-02-13 21:39:00,
2013-02-13 14:44:00,48.8,14.5,30.12,NW,314,8.0,8.0,25,0.00,,,0.00,Wunderground v.1.15,2013-02-13 21:44:00,
2013-02-13 14:50:00,49.2,15.7,30.12,North,355,6.0,8.0,26,0.00,,,0.00,Wunderground v.1.15,2013-02-13 21:50:00,
2013-02-13 14:55:00,49.5,16.0,30.12,West,281,6.0,14.0,26,0.00,,,0.00,Wunderground v.1.15,2013-02-13 21:55:00,
2013-02-13 15:00:00,49.4,15.0,30.12,NNW,348,7.0,9.0,25,0.00,,,0.00,Wunderground v.1.15,2013-02-13 22:00:00,
2013-02-13 15:05:00,49.1,15.6,30.12,NNW,340,8.0,9.0,26,0.00,,,0.00,Wunderground v.1.15,2013-02-13 22:05:00,
2013-02-13 15:15:00,49.1,15.6,30.11,NNW,336,7.0,11.0,26,0.00,,,0.00,Wunderground v.1.15,2013-02-13 22:15:00,
2013-02-13 15:20:00,49.0,15.6,30.11,North,9,7.0,7.0,26,0.00,,,0.00,Wunderground v.1.15,2013-02-13 22:20:00,
2013-02-13 15:29:00,48.5,15.1,30.12,NNW,331,6.0,6.0,26,0.00,,,0.00,Wunderground v.1.15,2013-02-13 22:29:00,
2013-02-13 15:35:00,48.8,16.2,30.11,North,355,5.0,6.0,27,0.00,,,0.00,Wunderground v.1.15,2013-02-13 22:35:00,
2013-02-13 15:40:00,49.1,15.6,30.11,NNE,14,5.0,6.0,26,0.00,,,0.00,Wunderground v.1.15,2013-02-13 22:40:00,
2013-02-13 15:50:00,49.0,15.6,30.11,NNW,336,5.0,5.0,26,0.00,,,0.00,Wunderground v.1.15,2013-02-13 22:50:00,
2013-02-13 15:55:00,48.5,15.1,30.11,NNW,336,7.0,7.0,26,0.00,,,0.00,Wunderground v.1.15,2013-02-13 22:55:00,
2013-02-13 16:00:00,48.9,15.5,30.11,NNW,338,6.0,6.0,26,0.00,,,0.00,Wunderground v.1.15,2013-02-13 23:00:00,
2013-02-13 16:05:00,48.8,15.4,30.11,NNW,332,5.0,12.0,26,0.00,,,0.00,Wunderground v.1.15,2013-02-13 23:05:00,
2013-02-13 16:15:00,48.3,15.0,30.11,North,355,8.0,10.0,26,0.00,,,0.00,Wunderground v.1.15,2013-02-13 23:15:00,
2013-02-13 16:25:00,48.0,14.7,30.11,NW,313,7.0,12.0,26,0.00,,,0.00,Wunderground v.1.15,2013-02-13 23:25:00,
2013-02-13 16:30:00,47.8,15.4,30.10,NW,319,7.0,7.0,27,0.00,,,0.00,Wunderground v.1.15,2013-02-13 23:30:00,
2013-02-13 16:35:00,47.7,15.3,30.10,North,360,8.0,8.0,27,0.00,,,0.00,Wunderground v.1.15,2013-02-13 23:35:00,
2013-02-13 16:40:00,47.5,15.1,30.10,North,5,7.0,7.0,27,0.00,,,0.00,Wunderground v.1.15,2013-02-13 23:40:00,
2013-02-13 16:45:00,47.3,15.0,30.10,NNW,344,6.0,7.0,27,0.00,,,0.00,Wunderground v.1.15,2013-02-13 23:45:00,
2013-02-13 16:50:00,47.3,15.0,30.10,North,5,6.0,6.0,27,0.00,,,0.00,Wunderground v.1.15,2013-02-13 23:50:00,
2013-02-13 17:00:00,46.9,14.6,30.10,NNW,329,6.0,9.0,27,0.00,,,0.00,Wunderground v.1.15,2013-02-14 00:00:00,
2013-02-13 17:05:00,46.7,15.3,30.10,NNE,32,6.0,9.0,28,0.00,,,0.00,Wunderground v.1.15,2013-02-14 00:05:00,
2013-02-13 17:14:00,46.4,15.0,30.10,NW,321,3.0,6.0,28,0.00,,,0.00,Wunderground v.1.15,2013-02-14 00:14:00,
2013-02-13 17:20:00,46.1,14.8,30.11,NNW,348,3.0,3.0,28,0.00,,,0.00,Wunderground v.1.15,2013-02-14 00:20:00,
2013-02-13 17:25:00,45.9,14.6,30.11,North,360,3.0,3.0,28,0.00,,,0.00,Wunderground v.1.15,2013-02-14 00:25:00,
2013-02-13 17:35:00,45.5,15.0,30.11,WNW,286,3.0,8.0,29,0.00,,,0.00,Wunderground v.1.15,2013-02-14 00:35:00,
2013-02-13 17:40:00,45.4,14.9,30.11,NW,304,4.0,4.0,29,0.00,,,0.00,Wunderground v.1.15,2013-02-14 00:40:00,
2013-02-13 17:45:00,45.1,15.5,30.12,NNW,344,5.0,5.0,30,0.00,,,0.00,Wunderground v.1.15,2013-02-14 00:45:00,
2013-02-13 17:50:00,44.9,15.3,30.12,NNW,338,6.0,13.0,30,0.00,,,0.00,Wunderground v.1.15,2013-02-14 00:50:00,
2013-02-13 17:55:00,44.7,15.1,30.13,NNW,344,7.0,13.0,30,0.00,,,0.00,Wunderground v.1.15,2013-02-14 00:55:00,
2013-02-13 18:05:00,44.1,15.3,30.13,North,351,7.0,7.0,31,0.00,,,0.00,Wunderground v.1.15,2013-02-14 01:05:00,
2013-02-13 18:15:00,43.8,15.1,30.14,NNE,13,6.0,7.0,31,0.00,,,0.00,Wunderground v.1.15,2013-02-14 01:15:00,
2013-02-13 18:20:00,43.5,15.5,30.14,NNW,333,5.0,5.0,32,0.00,,,0.00,Wunderground v.1.15,2013-02-14 01:20:00,
2013-02-13 18:25:00,43.2,16.0,30.14,NNW,342,6.0,12.0,33,0.00,,,0.00,Wunderground v.1.15,2013-02-14 01:25:00,
2013-02-13 18:30:00,43.0,16.5,30.14,NNW,331,7.0,7.0,34,0.00,,,0.00,Wunderground v.1.15,2013-02-14 01:30:00,
2013-02-13 18:40:00,42.6,16.2,30.15,NW,315,6.0,6.0,34,0.00,,,0.00,Wunderground v.1.15,2013-02-14 01:40:00,
2013-02-13 18:45:00,42.3,15.9,30.15,NW,312,4.0,6.0,34,0.00,,,0.00,Wunderground v.1.15,2013-02-14 01:45:00,
2013-02-13 18:50:00,42.0,16.3,30.15,NW,313,3.0,3.0,35,0.00,,,0.00,Wunderground v.1.15,2013-02-14 01:50:00,
2013-02-13 18:55:00,41.7,16.0,30.15,WNW,301,2.0,7.0,35,0.00,,,0.00,Wunderground v.1.15,2013-02-14 01:55:00,
2013-02-13 19:05:00,41.6,15.9,30.16,NNW,327,4.0,4.0,35,0.00,,,0.00,Wunderground v.1.15,2013-02-14 02:05:00,
2013-02-13 19:15:00,41.0,16.0,30.16,NNE,27,1.0,2.0,36,0.00,,,0.00,Wunderground v.1.15,2013-02-14 02:15:00,
2013-02-13 19:20:00,40.3,16.1,30.16,NNE,27,0.0,0.0,37,0.00,,,0.00,Wunderground v.1.15,2013-02-14 02:20:00,
2013-02-13 19:25:00,39.7,15.5,30.16,NNE,27,0.0,0.0,37,0.00,,,0.00,Wunderground v.1.15,2013-02-14 02:25:00,
2013-02-13 19:30:00,39.3,16.4,30.17,NNE,27,0.0,0.0,39,0.00,,,0.00,Wunderground v.1.15,2013-02-14 02:30:00,
2013-02-13 19:35:00,39.2,16.3,30.17,NNE,27,0.0,0.0,39,0.00,,,0.00,Wunderground v.1.15,2013-02-14 02:35:00,
2013-02-13 19:40:00,38.7,15.8,30.17,NNE,27,0.0,3.0,39,0.00,,,0.00,Wunderground v.1.15,2013-02-14 02:40:00,
2013-02-13 19:50:00,38.6,15.7,30.17,NNE,27,1.0,1.0,39,0.00,,,0.00,Wunderground v.1.15,2013-02-14 02:50:00,
2013-02-13 20:00:00,38.0,15.8,30.17,NNE,27,0.0,0.0,40,0.00,,,0.00,Wunderground v.1.15,2013-02-14 03:00:00,
2013-02-13 20:05:00,37.4,15.8,30.17,NNE,27,0.0,0.0,41,0.00,,,0.00,Wunderground v.1.15,2013-02-14 03:05:00,
2013-02-13 20:15:00,36.5,15.6,30.18,NNE,27,0.0,0.0,42,0.00,,,0.00,Wunderground v.1.15,2013-02-14 03:15:00,
2013-02-13 20:25:00,35.0,15.8,30.18,NNE,27,0.0,0.0,45,0.00,,,0.00,Wunderground v.1.15,2013-02-14 03:25:00,
2013-02-13 20:34:00,34.8,16.1,30.17,NNE,27,0.0,0.0,46,0.00,,,0.00,Wunderground v.1.15,2013-02-14 03:34:00,
2013-02-13 20:40:00,34.6,15.9,30.18,NNE,27,0.0,0.0,46,0.00,,,0.00,Wunderground v.1.15,2013-02-14 03:40:00,
2013-02-13 20:45:00,34.3,16.1,30.17,NNE,27,0.0,0.0,47,0.00,,,0.00,Wunderground v.1.15,2013-02-14 03:45:00,
2013-02-13 20:50:00,34.0,15.9,30.17,NNE,27,0.0,0.0,47,0.00,,,0.00,Wunderground v.1.15,2013-02-14 03:50:00,
2013-02-13 21:00:00,32.7,15.1,30.17,NNE,27,0.0,0.0,48,0.00,,,0.00,Wunderground v.1.15,2013-02-14 04:00:00,
2013-02-13 21:05:00,32.3,15.7,30.18,NNE,27,0.0,0.0,50,0.00,,,0.00,Wunderground v.1.15,2013-02-14 04:05:00,